createdAt,value
2022-08-08T00:02:30.600Z,3.60
2022-08-08T00:04:53.181Z,3.95
2022-08-08T00:07:52.327Z,3.15
2022-08-08T00:10:34.319Z,3.70
2022-08-08T00:14:17.392Z,3.97
2022-08-08T00:16:17.397Z,12.23
2022-08-08T00:18:56.188Z,6.20
2022-08-08T00:21:39.748Z,4.60
2022-08-08T00:24:29.881Z,7.35
2022-08-08T00:27:05.970Z,5.57
2022-08-08T00:29:50.852Z,5.10
2022-08-08T00:32:35.615Z,4.05
2022-08-08T00:35:18.517Z,6.45
2022-08-08T00:38:01.603Z,2.60
2022-08-08T00:41:12.007Z,6.57
2022-08-08T00:43:40.140Z,4.28
2022-08-08T00:46:19.326Z,2.03
2022-08-08T00:49:22.598Z,4.18
2022-08-08T00:52:20.056Z,7.80
2022-08-08T00:55:18.975Z,3.00
2022-08-08T00:58:30.694Z,4.40
2022-08-08T01:01:37.706Z,4.72
2022-08-08T01:04:50.656Z,4.05
2022-08-08T01:07:54.105Z,4.00
2022-08-08T01:10:44.783Z,5.50
2022-08-08T01:13:43.570Z,5.20
2022-08-08T01:16:27.761Z,3.45
2022-08-08T01:19:42.326Z,6.43
2022-08-08T01:22:34.868Z,5.43
2022-08-08T01:25:26.289Z,5.05
2022-08-08T01:28:02.048Z,6.22
2022-08-08T01:31:05.919Z,9.65
2022-08-08T01:34:05.750Z,4.68
2022-08-08T01:36:55.146Z,5.22
2022-08-08T01:39:34.840Z,4.75
2022-08-08T01:42:35.533Z,5.82
2022-08-08T01:45:27.490Z,9.07
2022-08-08T01:48:16.812Z,5.78
2022-08-08T01:52:03.041Z,4.32
2022-08-08T01:55:46.192Z,7.65
2022-08-08T01:58:04.396Z,3.45
2022-08-08T02:00:25.071Z,4.78
2022-08-08T02:03:49.247Z,4.13
2022-08-08T02:06:31.882Z,7.65
2022-08-08T02:09:19.333Z,7.53
2022-08-08T02:12:13.860Z,4.90
2022-08-08T02:14:58.779Z,3.47
2022-08-08T02:17:42.315Z,9.07
2022-08-08T02:21:01.312Z,4.47
2022-08-08T02:23:32.046Z,7.55
2022-08-08T02:26:15.750Z,5.82
2022-08-08T02:29:05.477Z,4.40
2022-08-08T02:32:00.864Z,4.30
2022-08-08T02:35:07.613Z,6.70
2022-08-08T02:38:02.982Z,6.97
2022-08-08T02:41:17.631Z,5.10
2022-08-08T02:44:38.393Z,6.05
2022-08-08T02:47:47.128Z,5.82
2022-08-08T02:50:55.579Z,5.82
2022-08-08T02:53:54.465Z,6.70
2022-08-08T02:57:17.458Z,9.00
2022-08-08T03:00:15.831Z,6.28
2022-08-08T03:05:00.611Z,6.27
2022-08-08T03:06:34.749Z,8.20
2022-08-08T03:09:41.293Z,3.88
2022-08-08T03:13:01.955Z,4.43
2022-08-08T03:16:01.025Z,5.28
2022-08-08T03:18:52.255Z,6.85
2022-08-08T03:21:19.746Z,8.75
2022-08-08T03:23:59.280Z,8.50
2022-08-08T03:26:32.695Z,13.20
2022-08-08T03:29:20.916Z,9.65
2022-08-08T03:32:22.976Z,7.07
2022-08-08T03:34:57.684Z,7.22
2022-08-08T03:37:59.529Z,4.22
2022-08-08T03:40:29.089Z,7.00
2022-08-08T03:42:58.680Z,5.28
2022-08-08T03:46:05.980Z,7.07
2022-08-08T03:49:09.755Z,7.43
2022-08-08T03:51:40.290Z,6.53
2022-08-08T03:54:06.962Z,6.30
2022-08-08T03:56:36.146Z,6.55
2022-08-08T03:59:04.309Z,6.70
2022-08-08T04:02:02.432Z,9.82
2022-08-08T04:04:30.797Z,8.57
2022-08-08T04:07:01.575Z,8.45
2022-08-08T04:10:00.012Z,10.77
2022-08-08T04:12:17.399Z,12.95
2022-08-08T04:14:47.277Z,7.90
2022-08-08T04:17:46.097Z,9.95
2022-08-08T04:20:08.259Z,7.55
2022-08-08T04:22:36.390Z,7.63
2022-08-08T04:25:04.394Z,7.93
2022-08-08T04:28:03.529Z,7.97
2022-08-08T04:30:20.149Z,12.00
2022-08-08T04:32:50.538Z,9.73
2022-08-08T04:35:22.543Z,12.15
2022-08-08T04:37:51.829Z,11.38
2022-08-08T04:40:19.839Z,9.65
2022-08-08T04:42:57.166Z,9.40
2022-08-08T04:45:28.229Z,9.30
2022-08-08T04:47:58.721Z,7.70
2022-08-08T04:50:34.210Z,7.97
2022-08-08T04:53:13.723Z,10.23
2022-08-08T04:55:56.229Z,6.85
2022-08-08T04:58:24.338Z,9.05
2022-08-08T05:00:52.215Z,10.07
2022-08-08T05:04:07.629Z,13.93
2022-08-08T05:06:12.765Z,10.07
2022-08-08T05:08:42.777Z,6.22
2022-08-08T05:11:22.560Z,8.50
2022-08-08T05:13:58.037Z,8.27
2022-08-08T05:16:50.860Z,7.72
2022-08-08T05:20:09.271Z,10.20
2022-08-08T05:22:06.827Z,6.00
2022-08-08T05:24:34.976Z,5.90
2022-08-08T05:27:05.495Z,8.55
2022-08-08T05:29:35.750Z,8.90
2022-08-08T05:32:06.470Z,5.60
2022-08-08T05:34:37.686Z,5.45
2022-08-08T05:37:07.505Z,7.93
2022-08-08T05:39:54.834Z,6.03
2022-08-08T05:42:41.930Z,5.22
2022-08-08T05:45:30.598Z,6.22
2022-08-08T05:48:08.587Z,8.68
2022-08-08T05:50:38.948Z,5.38
2022-08-08T05:53:53.898Z,10.15
2022-08-08T05:56:07.918Z,6.70
2022-08-08T05:58:57.149Z,9.85
2022-08-08T06:01:55.787Z,8.48
2022-08-08T06:04:23.305Z,5.32
2022-08-08T06:06:56.762Z,6.15
2022-08-08T06:09:41.594Z,7.43
2022-08-08T06:12:29.577Z,5.65
2022-08-08T06:15:03.147Z,13.50
2022-08-08T06:18:18.569Z,5.60
2022-08-08T06:20:22.983Z,3.53
2022-08-08T06:22:53.908Z,4.75
2022-08-08T06:26:34.921Z,3.35
2022-08-08T06:28:20.380Z,5.85
2022-08-08T06:31:00.063Z,4.07
2022-08-08T06:34:25.545Z,3.90
2022-08-08T06:36:53.956Z,4.65
2022-08-08T06:39:22.512Z,3.65
2022-08-08T06:41:57.089Z,1.65
2022-08-08T06:44:25.959Z,2.85
2022-08-08T06:49:56.489Z,2.90
2022-08-08T06:52:16.060Z,3.20
2022-08-08T06:54:44.991Z,5.15
2022-08-08T06:57:16.754Z,3.33
2022-08-08T07:00:10.653Z,1.33
2022-08-08T07:02:36.564Z,7.50
2022-08-08T07:05:20.571Z,3.80
2022-08-08T07:08:13.526Z,2.25
2022-08-08T07:10:51.663Z,2.40
2022-08-08T07:13:25.319Z,2.88
2022-08-08T07:16:06.151Z,4.70
2022-08-08T07:18:57.408Z,5.00
2022-08-08T07:21:34.622Z,5.75
2022-08-08T07:24:18.873Z,2.70
2022-08-08T07:26:54.632Z,3.70
2022-08-08T07:30:02.137Z,4.63
2022-08-08T07:32:17.231Z,3.85
2022-08-08T07:35:00.444Z,5.55
2022-08-08T07:37:49.442Z,4.28
2022-08-08T07:40:20.978Z,2.75
2022-08-08T07:42:57.713Z,2.63
2022-08-08T07:45:34.543Z,4.97
2022-08-08T07:48:05.222Z,8.10
2022-08-08T07:50:38.300Z,1.52
2022-08-08T07:53:52.053Z,4.65
2022-08-08T07:56:09.469Z,3.08
2022-08-08T07:58:42.149Z,6.18
2022-08-08T08:01:15.859Z,5.00
2022-08-08T08:04:02.907Z,2.60
2022-08-08T08:06:34.439Z,4.80
2022-08-08T08:09:24.914Z,5.20
2022-08-08T08:11:56.782Z,2.83
2022-08-08T08:14:50.360Z,1.95
2022-08-08T08:17:28.813Z,4.50
2022-08-08T08:20:10.282Z,2.45
2022-08-08T08:22:37.875Z,5.07
2022-08-08T08:25:08.908Z,1.98
2022-08-08T08:27:37.223Z,5.00
2022-08-08T08:30:05.935Z,3.03
2022-08-08T08:32:41.031Z,3.15
2022-08-08T08:38:14.645Z,13.82
2022-08-08T08:40:38.137Z,7.45
2022-08-08T08:43:11.833Z,3.85
2022-08-08T08:45:44.391Z,1.85
2022-08-08T08:48:16.399Z,3.13
2022-08-08T08:50:52.162Z,7.07
2022-08-08T08:53:55.252Z,4.88
2022-08-08T08:56:08.575Z,2.67
2022-08-08T08:58:50.292Z,3.63
2022-08-08T09:01:21.166Z,3.65
2022-08-08T09:03:51.815Z,5.15
2022-08-08T09:06:34.429Z,3.75
2022-08-08T09:09:26.189Z,2.33
2022-08-08T09:12:07.477Z,3.30
2022-08-08T09:14:42.349Z,4.20
2022-08-08T09:17:17.491Z,2.05
2022-08-08T09:22:01.643Z,3.47
2022-08-08T09:22:39.596Z,2.22
2022-08-08T09:25:09.918Z,3.45
2022-08-08T09:27:55.897Z,3.65
2022-08-08T09:30:27.861Z,4.25
2022-08-08T09:33:53.914Z,1.85
2022-08-08T09:35:50.008Z,4.10
2022-08-08T09:38:52.427Z,3.80
2022-08-08T09:41:33.835Z,3.30
2022-08-08T09:44:34.081Z,3.75
2022-08-08T09:47:25.803Z,3.22
2022-08-08T09:50:03.395Z,2.90
2022-08-08T09:52:55.427Z,5.20
2022-08-08T09:56:03.199Z,3.13
2022-08-08T09:58:25.965Z,3.13
2022-08-08T10:01:15.217Z,2.78
2022-08-08T10:03:58.153Z,6.03
2022-08-08T10:06:32.310Z,3.05
2022-08-08T10:09:00.778Z,3.25
2022-08-08T10:12:26.352Z,2.70
2022-08-08T10:14:28.139Z,5.70
2022-08-08T10:17:56.405Z,5.35
2022-08-08T10:20:03.794Z,2.38
2022-08-08T10:22:54.972Z,3.50
2022-08-08T10:25:24.506Z,3.90
2022-08-08T10:27:57.757Z,2.40
2022-08-08T10:30:59.737Z,2.13
2022-08-08T10:33:14.776Z,3.08
2022-08-08T10:36:07.225Z,2.35
2022-08-08T10:38:40.574Z,2.90
2022-08-08T10:41:17.231Z,6.10
2022-08-08T10:43:51.553Z,3.20
2022-08-08T10:46:31.049Z,5.70
2022-08-08T10:49:00.004Z,2.10
2022-08-08T10:51:31.429Z,1.65
2022-08-08T10:54:25.090Z,1.13
2022-08-08T10:57:03.969Z,4.57
2022-08-08T10:59:40.068Z,3.20
2022-08-08T11:02:10.174Z,0.95
2022-08-08T11:04:53.616Z,4.65
2022-08-08T11:08:31.361Z,2.05
2022-08-08T11:10:19.806Z,1.27
2022-08-08T11:13:27.713Z,1.13
2022-08-08T11:15:58.762Z,0.63
2022-08-08T11:18:30.693Z,2.58
2022-08-08T11:21:08.924Z,2.33
2022-08-08T11:23:41.782Z,2.13
2022-08-08T11:26:19.201Z,1.75
2022-08-08T11:28:50.283Z,1.95
2022-08-08T11:31:21.073Z,2.22
2022-08-08T11:34:03.112Z,2.42
2022-08-08T11:36:36.285Z,1.27
2022-08-08T11:39:05.448Z,1.90
2022-08-08T11:41:39.899Z,2.30
2022-08-08T11:44:11.757Z,3.47
2022-08-08T11:46:40.909Z,1.00
2022-08-08T11:49:14.101Z,2.87
2022-08-08T11:51:50.542Z,1.30
2022-08-08T11:54:33.458Z,1.83
2022-08-08T11:57:27.565Z,2.58
2022-08-08T12:00:02.209Z,1.33
2022-08-08T12:02:41.928Z,2.83
2022-08-08T12:05:13.892Z,1.38
2022-08-08T12:07:59.995Z,2.72
2022-08-08T12:10:30.242Z,2.67
2022-08-08T12:13:17.517Z,3.05
2022-08-08T12:15:48.294Z,2.88
2022-08-08T12:18:24.961Z,1.88
2022-08-08T12:20:55.188Z,2.13
2022-08-08T12:26:28.122Z,2.08
2022-08-08T12:29:40.622Z,1.40
2022-08-08T12:32:17.266Z,1.90
2022-08-08T12:34:52.927Z,1.60
2022-08-08T12:37:40.949Z,1.90
2022-08-08T12:40:22.624Z,0.68
2022-08-08T12:42:53.075Z,1.45
2022-08-08T12:45:59.128Z,1.08
2022-08-08T12:48:37.093Z,1.38
2022-08-08T12:51:07.634Z,3.45
2022-08-08T12:53:59.402Z,2.83
2022-08-08T12:56:34.277Z,2.00
2022-08-08T12:59:02.551Z,1.05
2022-08-08T13:01:40.260Z,1.38
2022-08-08T13:04:19.222Z,0.70
2022-08-08T13:07:04.879Z,0.65
2022-08-08T13:09:43.187Z,2.95
2022-08-08T13:12:48.299Z,2.95
2022-08-08T13:15:19.323Z,2.08
2022-08-08T13:18:08.974Z,6.80
2022-08-08T13:20:44.797Z,2.78
2022-08-08T13:23:41.691Z,3.03
2022-08-08T13:26:14.940Z,1.42
2022-08-08T13:28:45.904Z,1.42
2022-08-08T13:31:17.081Z,2.55
2022-08-08T13:33:50.035Z,1.50
2022-08-08T13:36:25.882Z,0.68
2022-08-08T13:38:54.181Z,2.40
2022-08-08T13:41:23.092Z,1.15
2022-08-08T13:43:51.263Z,1.50
2022-08-08T13:46:26.616Z,0.82
2022-08-08T13:50:33.365Z,2.55
2022-08-08T13:52:35.854Z,1.27
2022-08-08T13:55:07.146Z,1.85
2022-08-08T13:58:06.620Z,1.65
2022-08-08T14:00:24.540Z,1.08
2022-08-08T14:02:59.981Z,1.73
2022-08-08T14:05:34.281Z,0.73
2022-08-08T14:08:16.320Z,1.90
2022-08-08T14:10:45.363Z,1.77
2022-08-08T14:13:30.849Z,0.77
2022-08-08T14:16:16.056Z,0.60
2022-08-08T14:19:11.104Z,3.45
2022-08-08T14:21:52.035Z,2.03
2022-08-08T14:24:34.891Z,2.80
2022-08-08T14:27:07.391Z,1.50
2022-08-08T14:29:39.514Z,1.35
2022-08-08T14:32:11.636Z,2.33
2022-08-08T14:34:45.344Z,0.65
2022-08-08T14:37:18.583Z,0.45
2022-08-08T14:39:53.738Z,3.45
2022-08-08T14:42:54.794Z,3.03
2022-08-08T14:45:46.941Z,1.77
2022-08-08T14:48:27.290Z,5.45
2022-08-08T14:51:07.373Z,2.50
2022-08-08T14:53:56.083Z,0.98
2022-08-08T14:56:25.938Z,2.20
2022-08-08T14:58:54.980Z,3.35
2022-08-08T15:01:37.524Z,2.25
2022-08-08T15:04:09.648Z,3.17
2022-08-08T15:06:39.048Z,0.82
2022-08-08T15:09:09.949Z,2.15
2022-08-08T15:11:43.100Z,2.50
2022-08-08T15:14:15.010Z,2.90
2022-08-08T15:16:44.349Z,0.63
2022-08-08T15:19:14.915Z,1.33
2022-08-08T15:21:44.621Z,2.30
2022-08-08T15:24:14.268Z,1.65
2022-08-08T15:26:52.453Z,0.80
2022-08-08T15:29:22.581Z,1.25
2022-08-08T15:32:03.616Z,1.73
2022-08-08T15:34:40.043Z,2.65
2022-08-08T15:37:07.749Z,2.38
2022-08-08T15:39:38.461Z,1.33
2022-08-08T15:44:38.699Z,0.88
2022-08-08T15:47:07.190Z,3.58
2022-08-08T15:49:48.063Z,1.85
2022-08-08T15:52:18.086Z,1.23
2022-08-08T15:54:51.675Z,1.52
2022-08-08T15:57:20.860Z,0.63
2022-08-08T16:00:06.254Z,4.72
2022-08-08T16:02:37.150Z,2.03
2022-08-08T16:05:13.865Z,3.78
2022-08-08T16:07:51.410Z,0.57
2022-08-08T16:13:20.476Z,3.53
2022-08-08T16:13:33.530Z,2.30
2022-08-08T16:16:09.205Z,1.20
2022-08-08T16:18:43.086Z,1.35
2022-08-08T16:21:20.726Z,0.82
2022-08-08T16:23:55.577Z,2.85
2022-08-08T16:26:34.366Z,0.47
2022-08-08T16:29:08.652Z,1.00
2022-08-08T16:31:37.670Z,0.82
2022-08-08T16:34:05.658Z,0.40
2022-08-08T16:36:34.207Z,2.85
2022-08-08T16:39:09.780Z,1.75
2022-08-08T16:41:53.189Z,0.10
2022-08-08T16:44:27.996Z,0.85
2022-08-08T16:47:42.176Z,0.50
2022-08-08T16:50:15.086Z,1.77
2022-08-08T16:55:05.939Z,0.73
2022-08-08T16:55:53.006Z,0.55
2022-08-08T16:58:25.804Z,0.65
2022-08-08T17:00:58.934Z,0.60
2022-08-08T17:03:58.646Z,0.65
2022-08-08T17:06:35.453Z,1.30
2022-08-08T17:09:02.368Z,2.83
2022-08-08T17:11:38.873Z,2.15
2022-08-08T17:14:18.056Z,0.68
2022-08-08T17:16:57.471Z,0.68
2022-08-08T17:19:30.400Z,0.63
2022-08-08T17:22:05.822Z,3.65
2022-08-08T17:24:36.674Z,0.47
2022-08-08T17:27:07.499Z,0.32
2022-08-08T17:29:36.457Z,2.05
2022-08-08T17:32:11.111Z,1.17
2022-08-08T17:35:52.201Z,0.68
2022-08-08T17:37:32.557Z,2.90
2022-08-08T17:40:12.888Z,2.20
2022-08-08T17:42:47.227Z,3.03
2022-08-08T17:45:23.678Z,1.00
2022-08-08T17:47:54.562Z,0.75
2022-08-08T17:50:22.803Z,1.45
2022-08-08T17:52:50.336Z,2.13
2022-08-08T17:56:05.974Z,1.85
2022-08-08T17:58:05.559Z,2.75
2022-08-08T18:00:33.094Z,2.05
2022-08-08T18:03:08.292Z,4.93
2022-08-08T18:05:48.718Z,2.05
2022-08-08T18:08:25.169Z,2.00
2022-08-08T18:11:15.365Z,2.45
2022-08-08T18:13:45.602Z,2.78
2022-08-08T18:16:20.473Z,4.13
2022-08-08T18:18:52.501Z,4.13
2022-08-08T18:21:35.571Z,1.85
2022-08-08T18:24:19.012Z,3.60
2022-08-08T18:26:53.781Z,1.70
2022-08-08T18:29:33.911Z,1.98
2022-08-08T18:32:07.289Z,1.80
2022-08-08T18:34:39.487Z,3.10
2022-08-08T18:37:10.258Z,2.13
2022-08-08T18:39:57.779Z,0.88
2022-08-08T18:42:28.137Z,1.27
2022-08-08T18:44:57.567Z,4.20
2022-08-08T18:47:31.535Z,3.15
2022-08-08T18:50:02.859Z,0.85
2022-08-08T18:52:33.837Z,1.92
2022-08-08T18:55:10.707Z,1.42
2022-08-08T18:57:43.429Z,2.13
2022-08-08T19:00:20.203Z,0.65
2022-08-08T19:02:55.259Z,1.88
2022-08-08T19:05:31.767Z,3.67
2022-08-08T19:08:02.956Z,1.80
2022-08-08T19:10:31.706Z,2.47
2022-08-08T19:13:00.258Z,2.10
2022-08-08T19:15:33.997Z,2.75
2022-08-08T19:18:33.214Z,2.10
2022-08-08T19:20:49.685Z,1.95
2022-08-08T19:23:17.878Z,1.85
2022-08-08T19:26:19.612Z,3.10
2022-08-08T19:28:43.101Z,1.58
2022-08-08T19:31:13.115Z,2.03
2022-08-08T19:34:04.669Z,4.00
2022-08-08T19:36:34.968Z,1.88
2022-08-08T19:39:02.690Z,2.13
2022-08-08T19:41:33.724Z,3.08
2022-08-08T19:44:03.871Z,1.20
2022-08-08T19:46:33.935Z,3.33
2022-08-08T19:49:05.617Z,1.17
2022-08-08T19:51:34.760Z,2.65
2022-08-08T19:54:09.470Z,2.92
2022-08-08T19:56:39.820Z,1.83
2022-08-08T19:59:10.141Z,1.92
2022-08-08T20:02:02.463Z,2.00
2022-08-08T20:04:29.751Z,4.63
2022-08-08T20:07:03.444Z,2.92
2022-08-08T20:09:36.464Z,1.67
2022-08-08T20:12:14.010Z,1.40
2022-08-08T20:14:51.846Z,1.63
2022-08-08T20:17:26.912Z,0.98
2022-08-08T20:19:55.713Z,3.22
2022-08-08T20:22:31.013Z,2.50
2022-08-08T20:25:00.653Z,5.45
2022-08-08T20:27:33.018Z,3.00
2022-08-08T20:30:56.237Z,4.35
2022-08-08T20:33:18.423Z,5.82
2022-08-08T20:35:58.250Z,4.15
2022-08-08T20:38:32.658Z,2.80
2022-08-08T20:41:16.923Z,4.07
2022-08-08T20:43:49.362Z,1.23
2022-08-08T20:46:20.366Z,2.40
2022-08-08T20:48:48.567Z,2.17
2022-08-08T20:51:17.470Z,2.45
2022-08-08T20:53:58.989Z,4.07
2022-08-08T20:56:35.578Z,1.88
2022-08-08T20:59:08.964Z,5.53
2022-08-08T21:02:05.497Z,3.72
2022-08-08T21:04:27.677Z,2.33
2022-08-08T21:07:00.069Z,2.67
2022-08-08T21:09:31.697Z,2.00
2022-08-08T21:12:16.381Z,1.92
2022-08-08T21:14:48.970Z,2.70
2022-08-08T21:17:16.842Z,4.00
2022-08-08T21:19:47.211Z,1.65
2022-08-08T21:22:15.799Z,1.00
2022-08-08T21:24:52.682Z,2.00
2022-08-08T21:28:06.756Z,3.40
2022-08-08T21:30:18.736Z,3.25
2022-08-08T21:32:52.037Z,1.85
2022-08-08T21:36:14.939Z,4.05
2022-08-08T21:38:16.120Z,3.92
2022-08-08T21:40:55.691Z,2.78
2022-08-08T21:43:33.651Z,4.47
2022-08-08T21:48:05.276Z,4.25
2022-08-08T21:48:54.641Z,2.67
2022-08-08T21:54:17.367Z,3.15
2022-08-08T21:54:31.914Z,3.25
2022-08-08T21:57:01.778Z,3.67
2022-08-08T22:00:01.313Z,2.67
2022-08-08T22:02:19.374Z,2.42
2022-08-08T22:04:52.342Z,4.07
2022-08-08T22:07:20.014Z,4.35
2022-08-08T22:09:54.943Z,3.15
2022-08-08T22:12:22.490Z,2.45
2022-08-08T22:14:53.049Z,2.65
2022-08-08T22:17:20.775Z,2.25
2022-08-08T22:20:12.153Z,2.45
2022-08-08T22:22:38.539Z,5.53
2022-08-08T22:25:17.743Z,5.57
2022-08-08T22:28:02.567Z,3.03
2022-08-08T22:30:32.299Z,2.00
2022-08-08T22:33:01.739Z,7.53
2022-08-08T22:36:04.270Z,2.88
2022-08-08T22:38:17.482Z,5.80
2022-08-08T22:40:48.243Z,5.60
2022-08-08T22:43:17.559Z,2.67
2022-08-08T22:45:46.722Z,3.78
2022-08-08T22:48:21.519Z,4.18
2022-08-08T22:50:49.443Z,4.15
2022-08-08T22:54:28.137Z,2.30
2022-08-08T22:56:05.017Z,3.58
2022-08-08T22:58:35.087Z,7.55
2022-08-08T23:02:00.554Z,4.50
2022-08-08T23:03:59.805Z,2.65
2022-08-08T23:06:27.602Z,4.65
2022-08-08T23:08:58.991Z,2.90
2022-08-08T23:11:31.115Z,4.63
2022-08-08T23:14:18.761Z,4.30
2022-08-08T23:16:54.475Z,4.85
2022-08-08T23:19:25.775Z,3.15
2022-08-08T23:21:53.287Z,4.28
2022-08-08T23:24:23.028Z,4.07
2022-08-08T23:26:53.489Z,8.75
2022-08-08T23:31:51.264Z,5.65
2022-08-08T23:34:19.564Z,2.60
2022-08-08T23:36:48.653Z,3.35
2022-08-08T23:39:16.676Z,4.20
2022-08-08T23:41:46.927Z,2.67
2022-08-08T23:44:18.810Z,3.88
2022-08-08T23:49:07.542Z,4.07
2022-08-08T23:49:34.752Z,3.25
2022-08-08T23:52:06.214Z,3.72
2022-08-08T23:54:42.318Z,7.28
2022-08-08T23:57:27.677Z,6.82
